sensor_id;sensor_type;location;lat;lon;timestamp;temperature;humidity
79491;SHT31;68950;53.098;18.032;2023-05-07T00:00:12;20.43;56.50
79491;SHT31;68950;53.098;18.032;2023-05-07T00:03:01;20.41;56.51
79491;SHT31;68950;53.098;18.032;2023-05-07T00:05:28;20.40;56.50
79491;SHT31;68950;53.098;18.032;2023-05-07T00:07:55;20.38;56.48
79491;SHT31;68950;53.098;18.032;2023-05-07T00:10:22;20.36;56.49
79491;SHT31;68950;53.098;18.032;2023-05-07T00:12:49;20.34;56.48
79491;SHT31;68950;53.098;18.032;2023-05-07T00:15:15;20.32;56.44
79491;SHT31;68950;53.098;18.032;2023-05-07T00:17:42;20.30;56.44
79491;SHT31;68950;53.098;18.032;2023-05-07T00:20:09;20.27;56.41
79491;SHT31;68950;53.098;18.032;2023-05-07T00:22:36;20.26;56.42
79491;SHT31;68950;53.098;18.032;2023-05-07T00:25:03;20.25;56.41
79491;SHT31;68950;53.098;18.032;2023-05-07T00:27:31;20.22;56.40
79491;SHT31;68950;53.098;18.032;2023-05-07T00:29:57;20.20;56.40
79491;SHT31;68950;53.098;18.032;2023-05-07T00:32:24;20.19;56.40
79491;SHT31;68950;53.098;18.032;2023-05-07T00:34:51;20.16;56.40
79491;SHT31;68950;53.098;18.032;2023-05-07T00:37:17;20.15;56.40
79491;SHT31;68950;53.098;18.032;2023-05-07T00:39:44;20.13;56.40
79491;SHT31;68950;53.098;18.032;2023-05-07T00:42:10;20.10;56.40
79491;SHT31;68950;53.098;18.032;2023-05-07T00:44:37;20.09;56.40
79491;SHT31;68950;53.098;18.032;2023-05-07T00:47:04;20.07;56.39
79491;SHT31;68950;53.098;18.032;2023-05-07T00:49:39;20.05;56.38
79491;SHT31;68950;53.098;18.032;2023-05-07T00:52:13;20.04;56.36
79491;SHT31;68950;53.098;18.032;2023-05-07T00:54:42;20.01;56.37
79491;SHT31;68950;53.098;18.032;2023-05-07T00:57:09;19.99;56.34
79491;SHT31;68950;53.098;18.032;2023-05-07T00:59:37;19.98;56.33
79491;SHT31;68950;53.098;18.032;2023-05-07T01:02:06;19.95;56.33
79491;SHT31;68950;53.098;18.032;2023-05-07T01:04:33;19.96;56.32
79491;SHT31;68950;53.098;18.032;2023-05-07T01:06:59;19.93;56.30
79491;SHT31;68950;53.098;18.032;2023-05-07T01:09:28;19.92;56.32
79491;SHT31;68950;53.098;18.032;2023-05-07T01:11:55;19.91;56.30
79491;SHT31;68950;53.098;18.032;2023-05-07T01:14:24;19.89;56.30
79491;SHT31;68950;53.098;18.032;2023-05-07T01:16:51;19.88;56.30
79491;SHT31;68950;53.098;18.032;2023-05-07T01:19:19;19.87;56.30
79491;SHT31;68950;53.098;18.032;2023-05-07T01:21:46;19.85;56.30
79491;SHT31;68950;53.098;18.032;2023-05-07T01:24:15;19.85;56.30
79491;SHT31;68950;53.098;18.032;2023-05-07T01:26:43;19.83;56.30
79491;SHT31;68950;53.098;18.032;2023-05-07T01:29:13;19.82;56.30
79491;SHT31;68950;53.098;18.032;2023-05-07T01:31:40;19.81;56.30
79491;SHT31;68950;53.098;18.032;2023-05-07T01:34:09;19.80;56.30
79491;SHT31;68950;53.098;18.032;2023-05-07T01:36:38;19.79;56.29
79491;SHT31;68950;53.098;18.032;2023-05-07T01:39:06;19.78;56.29
79491;SHT31;68950;53.098;18.032;2023-05-07T01:41:35;19.75;56.30
79491;SHT31;68950;53.098;18.032;2023-05-07T01:44:02;19.74;56.30
79491;SHT31;68950;53.098;18.032;2023-05-07T01:46:31;19.73;56.28
79491;SHT31;68950;53.098;18.032;2023-05-07T01:48:58;19.72;56.26
79491;SHT31;68950;53.098;18.032;2023-05-07T01:51:25;19.71;56.25
79491;SHT31;68950;53.098;18.032;2023-05-07T01:53:53;19.69;56.26
79491;SHT31;68950;53.098;18.032;2023-05-07T01:56:19;19.69;56.27
79491;SHT31;68950;53.098;18.032;2023-05-07T01:58:47;19.67;56.22
79491;SHT31;68950;53.098;18.032;2023-05-07T02:01:14;19.67;56.24
79491;SHT31;68950;53.098;18.032;2023-05-07T02:03:40;19.65;56.22
79491;SHT31;68950;53.098;18.032;2023-05-07T02:06:07;19.64;56.20
79491;SHT31;68950;53.098;18.032;2023-05-07T02:08:34;19.63;56.20
79491;SHT31;68950;53.098;18.032;2023-05-07T02:11:01;19.61;56.20
79491;SHT31;68950;53.098;18.032;2023-05-07T02:13:29;19.61;56.21
79491;SHT31;68950;53.098;18.032;2023-05-07T02:15:58;19.60;56.20
79491;SHT31;68950;53.098;18.032;2023-05-07T02:18:25;19.59;56.20
79491;SHT31;68950;53.098;18.032;2023-05-07T02:20:51;19.58;56.20
79491;SHT31;68950;53.098;18.032;2023-05-07T02:23:18;19.57;56.20
79491;SHT31;68950;53.098;18.032;2023-05-07T02:25:45;19.56;56.20
79491;SHT31;68950;53.098;18.032;2023-05-07T02:28:12;19.54;56.20
79491;SHT31;68950;53.098;18.032;2023-05-07T02:30:39;19.53;56.20
79491;SHT31;68950;53.098;18.032;2023-05-07T02:33:06;19.52;56.20
79491;SHT31;68950;53.098;18.032;2023-05-07T02:35:34;19.52;56.20
79491;SHT31;68950;53.098;18.032;2023-05-07T02:38:01;19.50;56.19
79491;SHT31;68950;53.098;18.032;2023-05-07T02:40:27;19.50;56.20
79491;SHT31;68950;53.098;18.032;2023-05-07T02:42:54;19.49;56.15
79491;SHT31;68950;53.098;18.032;2023-05-07T02:45:21;19.48;56.19
79491;SHT31;68950;53.098;18.032;2023-05-07T02:47:48;19.47;56.14
79491;SHT31;68950;53.098;18.032;2023-05-07T02:50:14;19.46;56.16
79491;SHT31;68950;53.098;18.032;2023-05-07T02:52:41;19.45;56.14
79491;SHT31;68950;53.098;18.032;2023-05-07T02:55:07;19.45;56.13
79491;SHT31;68950;53.098;18.032;2023-05-07T02:57:35;19.43;56.17
79491;SHT31;68950;53.098;18.032;2023-05-07T03:00:09;19.43;56.16
79491;SHT31;68950;53.098;18.032;2023-05-07T03:02:41;19.43;56.12
79491;SHT31;68950;53.098;18.032;2023-05-07T03:05:08;19.41;56.11
79491;SHT31;68950;53.098;18.032;2023-05-07T03:07:35;19.41;56.14
79491;SHT31;68950;53.098;18.032;2023-05-07T03:10:02;19.40;56.10
79491;SHT31;68950;53.098;18.032;2023-05-07T03:12:30;19.40;56.12
79491;SHT31;68950;53.098;18.032;2023-05-07T03:14:57;19.39;56.11
79491;SHT31;68950;53.098;18.032;2023-05-07T03:17:24;19.39;56.11
79491;SHT31;68950;53.098;18.032;2023-05-07T03:19:50;19.37;56.10
79491;SHT31;68950;53.098;18.032;2023-05-07T03:22:17;19.37;56.11
79491;SHT31;68950;53.098;18.032;2023-05-07T03:24:44;19.36;56.10
79491;SHT31;68950;53.098;18.032;2023-05-07T03:27:10;19.35;56.10
79491;SHT31;68950;53.098;18.032;2023-05-07T03:29:37;19.36;56.10
79491;SHT31;68950;53.098;18.032;2023-05-07T03:32:04;19.34;56.10
79491;SHT31;68950;53.098;18.032;2023-05-07T03:34:31;19.34;56.10
79491;SHT31;68950;53.098;18.032;2023-05-07T03:36:58;19.34;56.10
79491;SHT31;68950;53.098;18.032;2023-05-07T03:39:25;19.33;56.10
79491;SHT31;68950;53.098;18.032;2023-05-07T03:41:51;19.33;56.10
79491;SHT31;68950;53.098;18.032;2023-05-07T03:44:19;19.33;56.10
79491;SHT31;68950;53.098;18.032;2023-05-07T03:46:46;19.32;56.10
79491;SHT31;68950;53.098;18.032;2023-05-07T03:49:12;19.32;56.10
79491;SHT31;68950;53.098;18.032;2023-05-07T03:51:39;19.32;56.09
79491;SHT31;68950;53.098;18.032;2023-05-07T03:54:06;19.32;56.10
79491;SHT31;68950;53.098;18.032;2023-05-07T03:56:33;19.31;56.08
79491;SHT31;68950;53.098;18.032;2023-05-07T03:59:00;19.31;56.08
79491;SHT31;68950;53.098;18.032;2023-05-07T04:01:27;19.31;56.07
79491;SHT31;68950;53.098;18.032;2023-05-07T04:03:55;19.30;56.09
79491;SHT31;68950;53.098;18.032;2023-05-07T04:06:21;19.32;56.07
79491;SHT31;68950;53.098;18.032;2023-05-07T04:08:48;19.31;56.06
79491;SHT31;68950;53.098;18.032;2023-05-07T04:11:15;19.31;56.05
79491;SHT31;68950;53.098;18.032;2023-05-07T04:13:42;19.31;56.06
79491;SHT31;68950;53.098;18.032;2023-05-07T04:16:08;19.30;56.01
79491;SHT31;68950;53.098;18.032;2023-05-07T04:18:35;19.31;56.02
79491;SHT31;68950;53.098;18.032;2023-05-07T04:21:01;19.31;56.01
79491;SHT31;68950;53.098;18.032;2023-05-07T04:23:28;19.31;56.02
79491;SHT31;68950;53.098;18.032;2023-05-07T04:25:55;19.30;56.02
79491;SHT31;68950;53.098;18.032;2023-05-07T04:28:22;19.31;56.02
79491;SHT31;68950;53.098;18.032;2023-05-07T04:30:50;19.30;56.00
79491;SHT31;68950;53.098;18.032;2023-05-07T04:33:17;19.31;56.00
79491;SHT31;68950;53.098;18.032;2023-05-07T04:35:44;19.31;56.00
79491;SHT31;68950;53.098;18.032;2023-05-07T04:38:11;19.31;56.00
79491;SHT31;68950;53.098;18.032;2023-05-07T04:40:37;19.32;56.00
79491;SHT31;68950;53.098;18.032;2023-05-07T04:43:05;19.31;56.00
79491;SHT31;68950;53.098;18.032;2023-05-07T04:45:32;19.32;56.00
79491;SHT31;68950;53.098;18.032;2023-05-07T04:47:58;19.31;56.00
79491;SHT31;68950;53.098;18.032;2023-05-07T04:50:25;19.31;56.00
79491;SHT31;68950;53.098;18.032;2023-05-07T04:52:52;19.32;56.00
79491;SHT31;68950;53.098;18.032;2023-05-07T04:55:19;19.32;56.00
79491;SHT31;68950;53.098;18.032;2023-05-07T04:57:46;19.32;56.00
79491;SHT31;68950;53.098;18.032;2023-05-07T05:00:13;19.32;56.00
79491;SHT31;68950;53.098;18.032;2023-05-07T05:02:40;19.32;56.00
79491;SHT31;68950;53.098;18.032;2023-05-07T05:05:07;19.33;56.00
79491;SHT31;68950;53.098;18.032;2023-05-07T05:07:34;19.34;56.00
79491;SHT31;68950;53.098;18.032;2023-05-07T05:10:01;19.34;56.00
79491;SHT31;68950;53.098;18.032;2023-05-07T05:12:29;19.34;56.00
79491;SHT31;68950;53.098;18.032;2023-05-07T05:14:56;19.35;56.00
79491;SHT31;68950;53.098;18.032;2023-05-07T05:17:23;19.35;56.00
79491;SHT31;68950;53.098;18.032;2023-05-07T05:19:50;19.35;56.00
79491;SHT31;68950;53.098;18.032;2023-05-07T05:22:17;19.34;56.00
79491;SHT31;68950;53.098;18.032;2023-05-07T05:24:43;19.34;56.01
79491;SHT31;68950;53.098;18.032;2023-05-07T05:27:10;19.34;56.00
79491;SHT31;68950;53.098;18.032;2023-05-07T05:29:36;19.34;56.00
79491;SHT31;68950;53.098;18.032;2023-05-07T05:32:03;19.33;56.03
79491;SHT31;68950;53.098;18.032;2023-05-07T05:34:30;19.33;56.01
79491;SHT31;68950;53.098;18.032;2023-05-07T05:36:56;19.34;56.03
79491;SHT31;68950;53.098;18.032;2023-05-07T05:39:23;19.34;56.01
79491;SHT31;68950;53.098;18.032;2023-05-07T05:41:49;19.34;56.01
79491;SHT31;68950;53.098;18.032;2023-05-07T05:44:16;19.34;56.01
79491;SHT31;68950;53.098;18.032;2023-05-07T05:46:43;19.36;56.00
79491;SHT31;68950;53.098;18.032;2023-05-07T05:49:10;19.36;56.01
79491;SHT31;68950;53.098;18.032;2023-05-07T05:51:36;19.36;56.00
79491;SHT31;68950;53.098;18.032;2023-05-07T05:54:03;19.36;56.00
79491;SHT31;68950;53.098;18.032;2023-05-07T05:56:29;19.38;56.00
79491;SHT31;68950;53.098;18.032;2023-05-07T05:58:57;19.39;56.00
79491;SHT31;68950;53.098;18.032;2023-05-07T06:01:23;19.39;56.00
79491;SHT31;68950;53.098;18.032;2023-05-07T06:03:50;19.40;56.00
79491;SHT31;68950;53.098;18.032;2023-05-07T06:06:17;19.41;55.99
79491;SHT31;68950;53.098;18.032;2023-05-07T06:08:43;19.41;56.00
79491;SHT31;68950;53.098;18.032;2023-05-07T06:11:10;19.42;56.00
79491;SHT31;68950;53.098;18.032;2023-05-07T06:13:36;19.43;56.00
79491;SHT31;68950;53.098;18.032;2023-05-07T06:16:04;19.44;56.00
79491;SHT31;68950;53.098;18.032;2023-05-07T06:18:31;19.45;56.00
79491;SHT31;68950;53.098;18.032;2023-05-07T06:20:58;19.46;56.00
79491;SHT31;68950;53.098;18.032;2023-05-07T06:23:24;19.47;56.00
79491;SHT31;68950;53.098;18.032;2023-05-07T06:25:51;19.47;56.00
79491;SHT31;68950;53.098;18.032;2023-05-07T06:28:18;19.48;56.00
79491;SHT31;68950;53.098;18.032;2023-05-07T06:30:44;19.48;56.00
79491;SHT31;68950;53.098;18.032;2023-05-07T06:33:11;19.48;56.00
79491;SHT31;68950;53.098;18.032;2023-05-07T06:35:38;19.48;56.00
79491;SHT31;68950;53.098;18.032;2023-05-07T06:38:04;19.47;56.01
79491;SHT31;68950;53.098;18.032;2023-05-07T06:40:31;19.47;56.00
79491;SHT31;68950;53.098;18.032;2023-05-07T06:42:58;19.46;56.02
79491;SHT31;68950;53.098;18.032;2023-05-07T06:45:24;19.46;56.01
79491;SHT31;68950;53.098;18.032;2023-05-07T06:47:51;19.45;56.01
79491;SHT31;68950;53.098;18.032;2023-05-07T06:50:18;19.45;56.00
79491;SHT31;68950;53.098;18.032;2023-05-07T06:52:44;19.45;56.00
79491;SHT31;68950;53.098;18.032;2023-05-07T06:55:11;19.45;56.00
79491;SHT31;68950;53.098;18.032;2023-05-07T06:57:38;19.44;56.02
79491;SHT31;68950;53.098;18.032;2023-05-07T07:00:05;19.43;56.00
79491;SHT31;68950;53.098;18.032;2023-05-07T07:02:35;19.42;56.00
79491;SHT31;68950;53.098;18.032;2023-05-07T07:05:03;19.42;56.00
79491;SHT31;68950;53.098;18.032;2023-05-07T07:07:31;19.42;55.99
79491;SHT31;68950;53.098;18.032;2023-05-07T07:09:57;19.42;56.00
79491;SHT31;68950;53.098;18.032;2023-05-07T07:12:24;19.42;55.99
79491;SHT31;68950;53.098;18.032;2023-05-07T07:14:52;19.41;55.97
79491;SHT31;68950;53.098;18.032;2023-05-07T07:17:18;19.41;55.99
79491;SHT31;68950;53.098;18.032;2023-05-07T07:19:45;19.41;55.96
79491;SHT31;68950;53.098;18.032;2023-05-07T07:22:12;19.40;55.94
79491;SHT31;68950;53.098;18.032;2023-05-07T07:24:38;19.40;55.93
79491;SHT31;68950;53.098;18.032;2023-05-07T07:27:05;19.41;55.91
79491;SHT31;68950;53.098;18.032;2023-05-07T07:29:31;19.41;55.91
79491;SHT31;68950;53.098;18.032;2023-05-07T07:31:58;19.40;55.91
79491;SHT31;68950;53.098;18.032;2023-05-07T07:34:24;19.40;55.90
79491;SHT31;68950;53.098;18.032;2023-05-07T07:36:51;19.40;55.90
79491;SHT31;68950;53.098;18.032;2023-05-07T07:39:18;19.40;55.90
79491;SHT31;68950;53.098;18.032;2023-05-07T07:41:44;19.40;55.90
79491;SHT31;68950;53.098;18.032;2023-05-07T07:44:11;19.39;55.90
79491;SHT31;68950;53.098;18.032;2023-05-07T07:46:39;19.40;55.90
79491;SHT31;68950;53.098;18.032;2023-05-07T07:49:05;19.39;55.88
79491;SHT31;68950;53.098;18.032;2023-05-07T07:51:32;19.39;55.85
79491;SHT31;68950;53.098;18.032;2023-05-07T07:53:59;19.39;55.84
79491;SHT31;68950;53.098;18.032;2023-05-07T07:56:27;19.40;55.82
79491;SHT31;68950;53.098;18.032;2023-05-07T07:58:53;19.38;55.80
79491;SHT31;68950;53.098;18.032;2023-05-07T08:01:20;19.39;55.80
79491;SHT31;68950;53.098;18.032;2023-05-07T08:03:47;19.39;55.80
79491;SHT31;68950;53.098;18.032;2023-05-07T08:06:13;19.39;55.80
79491;SHT31;68950;53.098;18.032;2023-05-07T08:08:40;19.39;55.80
79491;SHT31;68950;53.098;18.032;2023-05-07T08:11:07;19.39;55.80
79491;SHT31;68950;53.098;18.032;2023-05-07T08:13:34;19.39;55.79
79491;SHT31;68950;53.098;18.032;2023-05-07T08:16:01;19.39;55.76
79491;SHT31;68950;53.098;18.032;2023-05-07T08:18:27;19.40;55.78
79491;SHT31;68950;53.098;18.032;2023-05-07T08:20:55;19.39;55.71
79491;SHT31;68950;53.098;18.032;2023-05-07T08:23:21;19.39;55.72
79491;SHT31;68950;53.098;18.032;2023-05-07T08:25:49;19.39;55.70
79491;SHT31;68950;53.098;18.032;2023-05-07T08:28:17;19.40;55.70
79491;SHT31;68950;53.098;18.032;2023-05-07T08:30:43;19.40;55.70
79491;SHT31;68950;53.098;18.032;2023-05-07T08:33:10;19.40;55.70
79491;SHT31;68950;53.098;18.032;2023-05-07T08:35:37;19.40;55.69
79491;SHT31;68950;53.098;18.032;2023-05-07T08:38:03;19.40;55.67
79491;SHT31;68950;53.098;18.032;2023-05-07T08:40:30;19.41;55.69
79491;SHT31;68950;53.098;18.032;2023-05-07T08:43:05;19.40;55.65
79491;SHT31;68950;53.098;18.032;2023-05-07T08:45:33;19.40;55.61
79491;SHT31;68950;53.098;18.032;2023-05-07T08:48:02;19.41;55.61
79491;SHT31;68950;53.098;18.032;2023-05-07T08:50:32;19.41;55.60
79491;SHT31;68950;53.098;18.032;2023-05-07T08:53:03;19.41;55.60
79491;SHT31;68950;53.098;18.032;2023-05-07T08:55:30;19.41;55.59
79491;SHT31;68950;53.098;18.032;2023-05-07T08:57:57;19.41;55.59
79491;SHT31;68950;53.098;18.032;2023-05-07T09:00:24;19.41;55.59
79491;SHT31;68950;53.098;18.032;2023-05-07T09:02:52;19.42;55.57
79491;SHT31;68950;53.098;18.032;2023-05-07T09:05:20;19.42;55.52
79491;SHT31;68950;53.098;18.032;2023-05-07T09:07:47;19.42;55.50
79491;SHT31;68950;53.098;18.032;2023-05-07T09:10:13;19.42;55.50
79491;SHT31;68950;53.098;18.032;2023-05-07T09:12:40;19.42;55.50
79491;SHT31;68950;53.098;18.032;2023-05-07T09:15:07;19.44;55.50
79491;SHT31;68950;53.098;18.032;2023-05-07T09:17:35;19.43;55.49
79491;SHT31;68950;53.098;18.032;2023-05-07T09:20:03;19.44;55.47
79491;SHT31;68950;53.098;18.032;2023-05-07T09:22:32;19.43;55.43
79491;SHT31;68950;53.098;18.032;2023-05-07T09:24:59;19.44;55.42
79491;SHT31;68950;53.098;18.032;2023-05-07T09:27:26;19.44;55.40
79491;SHT31;68950;53.098;18.032;2023-05-07T09:29:52;19.43;55.40
79491;SHT31;68950;53.098;18.032;2023-05-07T09:32:19;19.44;55.40
79491;SHT31;68950;53.098;18.032;2023-05-07T09:34:45;19.44;55.40
79491;SHT31;68950;53.098;18.032;2023-05-07T09:37:13;19.45;55.37
79491;SHT31;68950;53.098;18.032;2023-05-07T09:42:14;19.45;55.35
79491;SHT31;68950;53.098;18.032;2023-05-07T09:44:43;19.46;55.30
79491;SHT31;68950;53.098;18.032;2023-05-07T09:47:11;19.45;55.30
79491;SHT31;68950;53.098;18.032;2023-05-07T09:49:41;19.46;55.30
79491;SHT31;68950;53.098;18.032;2023-05-07T09:52:14;19.46;55.30
79491;SHT31;68950;53.098;18.032;2023-05-07T09:54:42;19.47;55.30
79491;SHT31;68950;53.098;18.032;2023-05-07T09:57:11;19.47;55.26
79491;SHT31;68950;53.098;18.032;2023-05-07T09:59:39;19.47;55.21
79491;SHT31;68950;53.098;18.032;2023-05-07T10:02:10;19.48;55.23
79491;SHT31;68950;53.098;18.032;2023-05-07T10:04:38;19.47;55.20
79491;SHT31;68950;53.098;18.032;2023-05-07T10:07:06;19.48;55.20
79491;SHT31;68950;53.098;18.032;2023-05-07T10:09:34;19.49;55.20
79491;SHT31;68950;53.098;18.032;2023-05-07T10:12:05;19.50;55.19
79491;SHT31;68950;53.098;18.032;2023-05-07T10:14:33;19.50;55.17
79491;SHT31;68950;53.098;18.032;2023-05-07T10:17:01;19.51;55.14
79491;SHT31;68950;53.098;18.032;2023-05-07T10:19:29;19.53;55.12
79491;SHT31;68950;53.098;18.032;2023-05-07T10:21:59;19.53;55.10
79491;SHT31;68950;53.098;18.032;2023-05-07T10:24:32;19.54;55.10
79491;SHT31;68950;53.098;18.032;2023-05-07T10:27:10;19.55;55.09
79491;SHT31;68950;53.098;18.032;2023-05-07T10:33:34;19.54;55.06
79491;SHT31;68950;53.098;18.032;2023-05-07T10:36:03;19.54;55.02
79491;SHT31;68950;53.098;18.032;2023-05-07T10:38:31;19.55;55.00
79491;SHT31;68950;53.098;18.032;2023-05-07T10:40:59;19.56;55.00
79491;SHT31;68950;53.098;18.032;2023-05-07T10:43:25;19.57;55.00
79491;SHT31;68950;53.098;18.032;2023-05-07T10:51:30;19.59;54.91
79491;SHT31;68950;53.098;18.032;2023-05-07T10:56:37;19.62;54.90
79491;SHT31;68950;53.098;18.032;2023-05-07T11:04:24;19.68;54.89
79491;SHT31;68950;53.098;18.032;2023-05-07T11:17:33;19.81;54.80
79491;SHT31;68950;53.098;18.032;2023-05-07T11:20:01;19.84;54.78
79491;SHT31;68950;53.098;18.032;2023-05-07T11:25:00;19.85;54.78
79491;SHT31;68950;53.098;18.032;2023-05-07T11:27:32;19.85;54.71
79491;SHT31;68950;53.098;18.032;2023-05-07T11:30:00;19.87;54.70
79491;SHT31;68950;53.098;18.032;2023-05-07T11:32:30;19.90;54.70
79491;SHT31;68950;53.098;18.032;2023-05-07T11:34:59;19.93;54.70
79491;SHT31;68950;53.098;18.032;2023-05-07T11:37:27;19.94;54.66
79491;SHT31;68950;53.098;18.032;2023-05-07T11:40:05;19.97;54.61
79491;SHT31;68950;53.098;18.032;2023-05-07T11:42:36;20.00;54.60
79491;SHT31;68950;53.098;18.032;2023-05-07T11:45:05;19.99;54.60
79491;SHT31;68950;53.098;18.032;2023-05-07T11:47:35;19.99;54.60
79491;SHT31;68950;53.098;18.032;2023-05-07T11:50:05;19.97;54.56
79491;SHT31;68950;53.098;18.032;2023-05-07T11:52:33;19.96;54.54
79491;SHT31;68950;53.098;18.032;2023-05-07T11:55:01;19.98;54.51
79491;SHT31;68950;53.098;18.032;2023-05-07T11:57:32;20.00;54.50
79491;SHT31;68950;53.098;18.032;2023-05-07T12:00:01;20.03;54.49
79491;SHT31;68950;53.098;18.032;2023-05-07T12:02:30;20.07;54.47
79491;SHT31;68950;53.098;18.032;2023-05-07T12:04:57;20.06;54.45
79491;SHT31;68950;53.098;18.032;2023-05-07T12:07:26;20.04;54.40
79491;SHT31;68950;53.098;18.032;2023-05-07T12:09:53;20.04;54.40
79491;SHT31;68950;53.098;18.032;2023-05-07T12:12:20;20.04;54.40
79491;SHT31;68950;53.098;18.032;2023-05-07T12:14:46;20.06;54.32
79491;SHT31;68950;53.098;18.032;2023-05-07T12:17:13;20.03;54.31
79491;SHT31;68950;53.098;18.032;2023-05-07T12:19:41;20.01;54.30
79491;SHT31;68950;53.098;18.032;2023-05-07T12:22:10;19.99;54.30
79491;SHT31;68950;53.098;18.032;2023-05-07T12:24:43;19.99;54.27
79491;SHT31;68950;53.098;18.032;2023-05-07T12:27:11;19.99;54.23
79491;SHT31;68950;53.098;18.032;2023-05-07T12:29:39;19.99;54.20
79491;SHT31;68950;53.098;18.032;2023-05-07T12:32:07;19.98;54.20
79491;SHT31;68950;53.098;18.032;2023-05-07T12:34:43;19.96;54.18
79491;SHT31;68950;53.098;18.032;2023-05-07T12:37:11;19.97;54.17
79491;SHT31;68950;53.098;18.032;2023-05-07T12:39:48;19.97;54.11
79491;SHT31;68950;53.098;18.032;2023-05-07T12:42:32;19.97;54.10
79491;SHT31;68950;53.098;18.032;2023-05-07T12:45:09;19.98;54.11
79491;SHT31;68950;53.098;18.032;2023-05-07T12:47:45;19.99;54.10
79491;SHT31;68950;53.098;18.032;2023-05-07T12:50:15;19.99;54.10
79491;SHT31;68950;53.098;18.032;2023-05-07T12:52:43;20.00;54.04
79491;SHT31;68950;53.098;18.032;2023-05-07T12:55:12;20.04;54.04
79491;SHT31;68950;53.098;18.032;2023-05-07T12:57:43;20.05;54.00
79491;SHT31;68950;53.098;18.032;2023-05-07T13:00:14;20.04;54.00
79491;SHT31;68950;53.098;18.032;2023-05-07T13:02:42;20.04;53.99
79491;SHT31;68950;53.098;18.032;2023-05-07T13:05:10;20.03;53.98
79491;SHT31;68950;53.098;18.032;2023-05-07T13:07:37;20.06;53.99
79491;SHT31;68950;53.098;18.032;2023-05-07T13:10:04;20.09;53.93
79491;SHT31;68950;53.098;18.032;2023-05-07T13:12:32;20.13;53.94
79491;SHT31;68950;53.098;18.032;2023-05-07T13:14:59;20.14;53.90
79491;SHT31;68950;53.098;18.032;2023-05-07T13:17:26;20.15;53.90
79491;SHT31;68950;53.098;18.032;2023-05-07T13:19:52;20.15;53.90
79491;SHT31;68950;53.098;18.032;2023-05-07T13:22:19;20.15;53.90
79491;SHT31;68950;53.098;18.032;2023-05-07T13:24:45;20.16;53.89
79491;SHT31;68950;53.098;18.032;2023-05-07T13:27:12;20.17;53.88
79491;SHT31;68950;53.098;18.032;2023-05-07T13:29:38;20.19;53.87
79491;SHT31;68950;53.098;18.032;2023-05-07T13:32:05;20.19;53.81
79491;SHT31;68950;53.098;18.032;2023-05-07T13:34:32;20.20;53.83
79491;SHT31;68950;53.098;18.032;2023-05-07T13:36:58;20.20;53.80
79491;SHT31;68950;53.098;18.032;2023-05-07T13:39:25;20.20;53.80
79491;SHT31;68950;53.098;18.032;2023-05-07T13:41:52;20.20;53.80
79491;SHT31;68950;53.098;18.032;2023-05-07T13:44:18;20.20;53.80
79491;SHT31;68950;53.098;18.032;2023-05-07T13:46:45;20.21;53.78
79491;SHT31;68950;53.098;18.032;2023-05-07T13:49:12;20.23;53.77
79491;SHT31;68950;53.098;18.032;2023-05-07T13:51:39;20.24;53.74
79491;SHT31;68950;53.098;18.032;2023-05-07T13:54:05;20.26;53.72
79491;SHT31;68950;53.098;18.032;2023-05-07T13:56:32;20.28;53.70
79491;SHT31;68950;53.098;18.032;2023-05-07T13:58:59;20.31;53.70
79491;SHT31;68950;53.098;18.032;2023-05-07T14:01:26;20.35;53.69
79491;SHT31;68950;53.098;18.032;2023-05-07T14:03:53;20.42;53.69
79491;SHT31;68950;53.098;18.032;2023-05-07T14:06:20;20.50;53.70
79491;SHT31;68950;53.098;18.032;2023-05-07T14:08:46;20.64;53.70
79491;SHT31;68950;53.098;18.032;2023-05-07T14:11:13;20.85;53.70
79491;SHT31;68950;53.098;18.032;2023-05-07T14:13:39;21.09;53.70
79491;SHT31;68950;53.098;18.032;2023-05-07T14:16:06;21.35;53.70
79491;SHT31;68950;53.098;18.032;2023-05-07T14:18:33;21.63;53.71
79491;SHT31;68950;53.098;18.032;2023-05-07T14:21:00;21.92;53.71
79491;SHT31;68950;53.098;18.032;2023-05-07T14:23:27;22.22;53.72
79491;SHT31;68950;53.098;18.032;2023-05-07T14:25:54;22.50;53.73
79491;SHT31;68950;53.098;18.032;2023-05-07T14:28:20;22.72;53.70
79491;SHT31;68950;53.098;18.032;2023-05-07T14:30:47;22.87;53.63
79491;SHT31;68950;53.098;18.032;2023-05-07T14:33:13;23.00;53.59
79491;SHT31;68950;53.098;18.032;2023-05-07T14:35:40;23.13;53.53
79491;SHT31;68950;53.098;18.032;2023-05-07T14:38:07;23.27;53.48
79491;SHT31;68950;53.098;18.032;2023-05-07T14:40:33;23.38;53.38
79491;SHT31;68950;53.098;18.032;2023-05-07T14:43:00;23.42;53.30
79491;SHT31;68950;53.098;18.032;2023-05-07T14:45:27;23.40;53.20
79491;SHT31;68950;53.098;18.032;2023-05-07T14:47:53;23.31;53.09
79491;SHT31;68950;53.098;18.032;2023-05-07T14:50:20;23.22;52.98
79491;SHT31;68950;53.098;18.032;2023-05-07T14:52:47;23.16;52.88
79491;SHT31;68950;53.098;18.032;2023-05-07T14:55:13;23.11;52.79
79491;SHT31;68950;53.098;18.032;2023-05-07T14:57:40;23.02;52.67
79491;SHT31;68950;53.098;18.032;2023-05-07T15:00:07;22.94;52.57
79491;SHT31;68950;53.098;18.032;2023-05-07T15:02:35;22.85;52.47
79491;SHT31;68950;53.098;18.032;2023-05-07T15:05:02;22.76;52.37
79491;SHT31;68950;53.098;18.032;2023-05-07T15:07:29;22.66;52.29
79491;SHT31;68950;53.098;18.032;2023-05-07T15:09:55;22.54;52.19
79491;SHT31;68950;53.098;18.032;2023-05-07T15:12:22;22.43;52.10
79491;SHT31;68950;53.098;18.032;2023-05-07T15:14:49;22.27;52.00
79491;SHT31;68950;53.098;18.032;2023-05-07T15:17:15;22.17;51.90
79491;SHT31;68950;53.098;18.032;2023-05-07T15:19:42;22.10;51.84
79491;SHT31;68950;53.098;18.032;2023-05-07T15:22:08;22.05;51.79
79491;SHT31;68950;53.098;18.032;2023-05-07T15:24:35;22.01;51.70
79491;SHT31;68950;53.098;18.032;2023-05-07T15:27:02;21.96;51.66
79491;SHT31;68950;53.098;18.032;2023-05-07T15:29:29;21.94;51.60
79491;SHT31;68950;53.098;18.032;2023-05-07T15:31:56;21.92;51.55
79491;SHT31;68950;53.098;18.032;2023-05-07T15:34:23;21.91;51.52
79491;SHT31;68950;53.098;18.032;2023-05-07T15:36:50;21.89;51.48
79491;SHT31;68950;53.098;18.032;2023-05-07T15:39:16;21.89;51.40
79491;SHT31;68950;53.098;18.032;2023-05-07T15:41:43;21.88;51.40
79491;SHT31;68950;53.098;18.032;2023-05-07T15:44:10;21.87;51.38
79491;SHT31;68950;53.098;18.032;2023-05-07T15:46:37;21.88;51.32
79491;SHT31;68950;53.098;18.032;2023-05-07T15:49:03;21.89;51.30